Time;durP1;ratioP1;P1;durP2;ratioP2;P2;SDS_P1;SDS_P2;PMS_P1;PMS_P2;Temp;Humidity;BMP_temperature;BMP_pressure;BME280_temperature;BME280_humidity;BME280_pressure;Samples;Min_cycle;Max_cycle;Signal;HPM_P1;HPM_P2
2023/03/07 00:00:29;;;;;;;5.35;3.65;;;-3.30;99.90;;;;;;5053762;28;20045;-77
2023/03/07 00:02:57;;;;;;;4.45;3.35;;;-3.30;99.90;;;;;;5039251;28;20049;-77
2023/03/07 00:05:25;;;;;;;7.03;4.90;;;-3.30;99.90;;;;;;5023051;28;20142;-77
2023/03/07 00:07:53;;;;;;;7.47;3.75;;;-3.20;99.90;;;;;;5034575;28;20064;-77
2023/03/07 00:10:20;;;;;;;6.45;4.28;;;-3.30;99.90;;;;;;5028773;28;20060;-77
2023/03/07 00:12:48;;;;;;;4.60;3.85;;;-3.30;99.90;;;;;;5045306;28;20056;-78
2023/03/07 00:15:15;;;;;;;4.20;3.28;;;-3.30;99.90;;;;;;5073966;28;20048;-77
2023/03/07 00:17:43;;;;;;;6.20;3.75;;;-3.30;99.90;;;;;;5050181;28;20045;-76
2023/03/07 00:20:13;;;;;;;6.68;4.10;;;-3.30;99.90;;;;;;5031916;28;20521;-77
2023/03/07 00:22:44;;;;;;;4.57;3.67;;;-3.30;99.90;;;;;;5029163;28;20147;-77
2023/03/07 00:25:11;;;;;;;4.80;3.65;;;-3.30;99.90;;;;;;5027937;28;20425;-78
2023/03/07 00:27:40;;;;;;;6.38;4.40;;;-3.30;99.90;;;;;;5044416;28;20096;-77
2023/03/07 00:30:11;;;;;;;4.90;3.55;;;-3.20;99.90;;;;;;5020737;28;20137;-78
2023/03/07 00:32:38;;;;;;;4.70;3.90;;;-3.30;99.90;;;;;;5048875;28;20110;-77
2023/03/07 00:35:07;;;;;;;7.85;4.43;;;-3.30;99.90;;;;;;5047206;28;20053;-77
2023/03/07 00:37:34;;;;;;;4.00;3.53;;;-3.40;99.90;;;;;;5015743;28;20053;-77
2023/03/07 00:40:05;;;;;;;5.63;3.50;;;-3.40;99.90;;;;;;5022371;28;20040;-77
2023/03/07 00:42:32;;;;;;;4.32;3.92;;;-3.40;99.90;;;;;;5035660;28;20084;-78
2023/03/07 00:45:00;;;;;;;6.22;3.97;;;-3.40;99.90;;;;;;5043559;28;20053;-78
2023/03/07 00:47:27;;;;;;;4.63;3.85;;;-3.50;99.90;;;;;;5032191;28;20112;-77
2023/03/07 00:49:55;;;;;;;4.68;3.88;;;-3.50;99.90;;;;;;5023789;28;20135;-78
2023/03/07 00:52:22;;;;;;;5.05;3.63;;;-3.50;99.90;;;;;;5034062;28;20182;-76
2023/03/07 00:54:50;;;;;;;5.40;3.95;;;-3.60;99.90;;;;;;5018249;28;20096;-78
2023/03/07 00:57:19;;;;;;;4.15;3.72;;;-3.60;99.90;;;;;;5031118;28;20049;-78
2023/03/07 00:59:47;;;;;;;5.25;3.80;;;-3.60;99.90;;;;;;5035452;28;20066;-77
2023/03/07 01:02:15;;;;;;;5.72;4.28;;;-3.70;99.90;;;;;;5018947;28;20091;-78
2023/03/07 01:04:42;;;;;;;5.47;4.22;;;-3.70;99.90;;;;;;5047781;28;20087;-78
2023/03/07 01:07:09;;;;;;;5.78;4.30;;;-3.80;99.90;;;;;;5052104;28;20059;-78
2023/03/07 01:09:37;;;;;;;4.50;3.97;;;-3.80;99.90;;;;;;5034565;28;20623;-77
2023/03/07 01:12:06;;;;;;;7.45;4.45;;;-3.90;99.90;;;;;;5020939;28;20057;-75
2023/03/07 01:14:35;;;;;;;5.65;3.97;;;-3.90;99.90;;;;;;5002891;28;20505;-76
2023/03/07 01:17:03;;;;;;;6.28;4.10;;;-3.90;99.90;;;;;;5048937;28;20052;-77
2023/03/07 01:19:31;;;;;;;4.95;4.18;;;-3.90;99.90;;;;;;5034701;28;20474;-77
2023/03/07 01:21:58;;;;;;;6.53;3.85;;;-3.90;99.90;;;;;;5047625;28;20092;-77
2023/03/07 01:24:26;;;;;;;4.68;3.63;;;-3.90;99.90;;;;;;5040577;28;20076;-77
2023/03/07 01:26:54;;;;;;;5.18;3.97;;;-3.90;99.90;;;;;;5024641;28;20044;-77
2023/03/07 01:29:24;;;;;;;5.30;4.35;;;-3.90;99.90;;;;;;5016761;28;20131;-77
2023/03/07 01:31:52;;;;;;;5.40;4.30;;;-3.90;99.90;;;;;;5015299;28;20144;-77
2023/03/07 01:34:20;;;;;;;6.93;4.00;;;-3.80;99.90;;;;;;5032279;28;20045;-75
2023/03/07 01:36:47;;;;;;;4.97;4.25;;;-3.80;99.90;;;;;;5032959;28;20091;-76
2023/03/07 01:39:16;;;;;;;7.22;4.88;;;-3.80;99.90;;;;;;5018306;28;20077;-76
2023/03/07 01:41:49;;;;;;;7.05;5.05;;;-3.80;99.90;;;;;;5019504;28;20056;-77
2023/03/07 01:44:20;;;;;;;5.72;4.45;;;-3.70;99.90;;;;;;5039873;28;20053;-77
2023/03/07 01:46:53;;;;;;;6.20;4.07;;;-3.70;99.90;;;;;;5032806;28;20059;-76
2023/03/07 01:49:26;;;;;;;4.80;4.18;;;-3.70;99.90;;;;;;5013972;28;20057;-77
2023/03/07 01:52:04;;;;;;;7.38;4.53;;;-3.70;99.90;;;;;;5021847;28;20051;-75
2023/03/07 01:54:37;;;;;;;8.43;4.63;;;-3.70;99.90;;;;;;5054574;28;20052;-76
2023/03/07 01:57:05;;;;;;;11.00;6.05;;;-3.70;99.90;;;;;;5057854;28;20053;-76
2023/03/07 01:59:36;;;;;;;6.63;5.32;;;-3.80;99.90;;;;;;5049626;28;20068;-76
2023/03/07 02:02:11;;;;;;;6.43;5.55;;;-3.80;99.90;;;;;;5030574;28;20498;-77
2023/03/07 02:04:44;;;;;;;8.88;6.03;;;-3.80;99.90;;;;;;5014981;28;20084;-76
2023/03/07 02:07:13;;;;;;;7.80;6.13;;;-3.80;99.90;;;;;;5028405;28;20386;-77
2023/03/07 02:09:43;;;;;;;9.82;6.30;;;-3.90;99.90;;;;;;5005536;28;20146;-75
2023/03/07 02:12:11;;;;;;;8.48;6.10;;;-3.90;99.90;;;;;;5031147;28;20048;-76
2023/03/07 02:14:38;;;;;;;9.40;6.63;;;-3.90;99.90;;;;;;5034290;28;20044;-76
2023/03/07 02:17:07;;;;;;;9.13;7.03;;;-3.90;99.90;;;;;;5030397;28;20061;-77
2023/03/07 02:19:50;;;;;;;9.73;6.65;;;-4.00;99.90;;;;;;5031934;28;20057;-77
2023/03/07 02:22:19;;;;;;;8.90;6.10;;;-4.00;99.90;;;;;;5017487;28;20059;-77
2023/03/07 02:24:53;;;;;;;8.25;5.93;;;-4.00;99.90;;;;;;5030646;28;20053;-77
2023/03/07 02:27:24;;;;;;;9.32;5.90;;;-4.10;99.90;;;;;;5018179;28;20066;-76
2023/03/07 02:29:53;;;;;;;9.80;5.40;;;-4.10;99.90;;;;;;5031393;28;20063;-76
2023/03/07 02:32:20;;;;;;;11.38;6.40;;;-4.10;99.90;;;;;;5014550;28;20053;-77
2023/03/07 02:34:50;;;;;;;9.07;5.68;;;-4.10;99.90;;;;;;5025088;28;20053;-75
2023/03/07 02:37:26;;;;;;;7.03;4.78;;;-4.20;99.90;;;;;;5013645;28;20053;-76
2023/03/07 02:39:56;;;;;;;6.03;5.00;;;-4.20;99.90;;;;;;5030805;28;20141;-77
2023/03/07 02:42:29;;;;;;;6.35;4.63;;;-4.20;99.90;;;;;;5013408;28;20045;-76
2023/03/07 02:45:13;;;;;;;6.40;4.90;;;-4.20;99.90;;;;;;4998573;28;20493;-77
2023/03/07 02:47:43;;;;;;;13.98;6.22;;;-4.10;99.90;;;;;;5014114;28;20049;-76
2023/03/07 02:50:13;;;;;;;17.13;6.78;;;-4.10;99.90;;;;;;5030597;28;20635;-77
2023/03/07 02:52:44;;;;;;;14.00;6.85;;;-4.10;99.90;;;;;;5040864;28;20048;-77
2023/03/07 02:55:12;;;;;;;19.52;7.03;;;-4.00;99.90;;;;;;5056552;28;20102;-78
2023/03/07 02:57:46;;;;;;;18.27;6.28;;;-4.00;99.90;;;;;;5033534;28;20056;-77
2023/03/07 03:00:16;;;;;;;17.77;5.60;;;-4.00;99.90;;;;;;5032896;28;20045;-78
2023/03/07 03:02:43;;;;;;;10.40;5.50;;;-4.00;99.90;;;;;;5029493;28;20049;-77
2023/03/07 03:05:11;;;;;;;18.45;7.38;;;-4.00;99.90;;;;;;5013949;28;20049;-75
2023/03/07 03:07:38;;;;;;;28.60;6.03;;;-4.00;99.90;;;;;;5031214;28;20045;-76
2023/03/07 03:10:07;;;;;;;24.75;6.78;;;-4.00;99.90;;;;;;5034197;28;20056;-76
2023/03/07 03:12:35;;;;;;;14.90;6.97;;;-4.00;99.90;;;;;;5000508;28;20041;-75
2023/03/07 03:15:07;;;;;;;9.35;5.53;;;-4.00;99.90;;;;;;5030059;28;20417;-77
2023/03/07 03:17:34;;;;;;;15.18;6.53;;;-4.00;99.90;;;;;;5013303;28;20052;-76
2023/03/07 03:20:06;;;;;;;16.08;6.72;;;-4.10;99.90;;;;;;5027561;28;20140;-76
2023/03/07 03:22:33;;;;;;;16.83;6.28;;;-4.10;99.90;;;;;;5001140;28;20050;-76
2023/03/07 03:25:01;;;;;;;13.85;6.25;;;-4.10;99.90;;;;;;5033483;28;20053;-77
2023/03/07 03:27:32;;;;;;;13.25;6.78;;;-4.10;99.90;;;;;;5014129;28;20091;-76
2023/03/07 03:30:00;;;;;;;12.75;6.57;;;-4.10;99.90;;;;;;5048959;28;20053;-77
2023/03/07 03:32:29;;;;;;;15.27;6.45;;;-4.20;99.90;;;;;;5028662;28;20512;-76
2023/03/07 03:34:59;;;;;;;12.18;6.50;;;-4.20;99.90;;;;;;5026155;28;20144;-76
2023/03/07 03:37:27;;;;;;;16.95;8.23;;;-4.20;99.90;;;;;;4999681;28;20046;-76
2023/03/07 03:39:55;;;;;;;13.95;7.82;;;-4.30;99.90;;;;;;5017390;28;20041;-75
2023/03/07 03:42:23;;;;;;;15.05;8.40;;;-4.40;99.90;;;;;;5036961;28;20430;-76
2023/03/07 03:44:50;;;;;;;14.50;8.00;;;-4.40;99.90;;;;;;5022513;28;20081;-77
2023/03/07 03:47:18;;;;;;;19.80;8.60;;;-4.50;99.90;;;;;;5032781;28;20061;-76
2023/03/07 03:49:47;;;;;;;12.20;6.80;;;-4.60;99.90;;;;;;5022282;28;20593;-76
2023/03/07 03:52:15;;;;;;;14.25;6.90;;;-4.80;99.90;;;;;;5021439;28;20060;-76
2023/03/07 03:54:42;;;;;;;15.70;6.90;;;-4.80;99.90;;;;;;5043358;28;20049;-76
2023/03/07 03:57:11;;;;;;;11.57;6.55;;;-4.90;99.90;;;;;;5039429;28;20049;-76
2023/03/07 03:59:39;;;;;;;11.13;6.50;;;-4.90;99.90;;;;;;5055790;28;20484;-77
2023/03/07 04:02:06;;;;;;;11.07;6.30;;;-4.80;99.90;;;;;;5036233;28;20110;-77
2023/03/07 04:04:34;;;;;;;10.52;6.88;;;-4.70;99.90;;;;;;5040662;28;20046;-76
2023/03/07 04:07:03;;;;;;;14.80;7.13;;;-4.70;99.90;;;;;;5048706;28;20060;-77
2023/03/07 04:09:32;;;;;;;11.88;6.78;;;-4.60;99.90;;;;;;5023561;28;20053;-77
2023/03/07 04:12:00;;;;;;;12.07;7.18;;;-4.50;99.90;;;;;;5030269;28;20139;-78
2023/03/07 04:14:28;;;;;;;8.40;6.22;;;-4.40;99.90;;;;;;5044989;28;20069;-77
2023/03/07 04:16:56;;;;;;;12.88;6.78;;;-4.30;99.90;;;;;;5033111;28;20096;-75
2023/03/07 04:19:24;;;;;;;10.48;6.53;;;-4.20;99.90;;;;;;5029412;28;20048;-75
2023/03/07 04:21:52;;;;;;;8.45;5.68;;;-4.10;99.90;;;;;;5045738;28;20140;-75
2023/03/07 04:24:21;;;;;;;7.57;4.70;;;-4.00;99.90;;;;;;5029879;28;20033;-76
2023/03/07 04:26:50;;;;;;;7.68;5.80;;;-4.00;99.90;;;;;;5032026;28;20049;-76
2023/03/07 04:29:17;;;;;;;7.25;5.40;;;-3.90;99.90;;;;;;5036743;28;20051;-75
2023/03/07 04:31:52;;;;;;;11.00;6.32;;;-3.90;99.90;;;;;;5010741;28;20037;-76
2023/03/07 04:34:20;;;;;;;10.30;6.45;;;-3.80;99.90;;;;;;5009692;28;20057;-75
2023/03/07 04:36:47;;;;;;;8.15;6.00;;;-3.80;99.90;;;;;;5037407;28;20049;-75
2023/03/07 04:39:15;;;;;;;12.80;6.25;;;-3.80;99.90;;;;;;5016229;28;20075;-74
2023/03/07 04:41:44;;;;;;;8.48;5.20;;;-3.70;99.90;;;;;;5017835;28;20101;-75
2023/03/07 04:44:21;;;;;;;7.75;4.93;;;-3.70;99.90;;;;;;5030451;28;20071;-74
2023/03/07 04:46:49;;;;;;;9.98;6.00;;;-3.60;99.90;;;;;;5016666;28;20040;-76
2023/03/07 04:49:17;;;;;;;6.32;4.90;;;-3.50;99.90;;;;;;5031412;28;20045;-76
2023/03/07 04:51:45;;;;;;;6.57;4.70;;;-3.50;99.90;;;;;;5017242;28;20056;-76
2023/03/07 04:54:15;;;;;;;7.57;4.90;;;-3.50;99.90;;;;;;5028479;28;20220;-77
2023/03/07 04:56:48;;;;;;;10.80;5.22;;;-3.50;99.90;;;;;;5020482;28;20136;-77
2023/03/07 04:59:16;;;;;;;8.60;5.23;;;-3.50;99.90;;;;;;5045728;28;20049;-77
2023/03/07 05:01:43;;;;;;;10.25;5.85;;;-3.50;99.90;;;;;;5032573;28;20671;-78
2023/03/07 05:04:11;;;;;;;10.63;4.47;;;-3.40;99.90;;;;;;5013859;28;20488;-79
2023/03/07 05:06:39;;;;;;;6.13;4.20;;;-3.40;99.90;;;;;;5022244;28;20137;-75
2023/03/07 05:09:08;;;;;;;6.53;4.25;;;-3.50;99.90;;;;;;5025499;28;20073;-78
2023/03/07 05:11:36;;;;;;;5.55;4.43;;;-3.40;99.90;;;;;;5024615;28;20041;-76
2023/03/07 05:14:06;;;;;;;7.00;4.50;;;-3.40;99.90;;;;;;5034061;28;20056;-80
2023/03/07 05:16:33;;;;;;;6.05;4.68;;;-3.30;99.90;;;;;;5050377;28;20107;-77
2023/03/07 05:19:01;;;;;;;9.65;4.57;;;-3.30;99.90;;;;;;5043091;28;20045;-79
2023/03/07 05:21:31;;;;;;;6.93;5.03;;;-3.30;99.90;;;;;;5031022;28;20060;-78
2023/03/07 05:24:02;;;;;;;7.05;5.00;;;-3.20;99.90;;;;;;5025830;28;20049;-79
2023/03/07 05:26:32;;;;;;;7.72;4.50;;;-3.20;99.90;;;;;;5030869;28;20053;-79
2023/03/07 05:28:59;;;;;;;7.10;4.95;;;-3.10;99.90;;;;;;5032743;28;20072;-79
2023/03/07 05:31:28;;;;;;;7.68;5.35;;;-3.10;99.90;;;;;;5014438;28;20052;-79
2023/03/07 05:33:56;;;;;;;5.60;4.63;;;-3.10;99.90;;;;;;5016685;28;20033;-80
2023/03/07 05:36:23;;;;;;;12.52;5.43;;;-3.10;99.90;;;;;;5040226;28;20044;-79
2023/03/07 05:38:52;;;;;;;6.45;5.05;;;-3.10;99.90;;;;;;5018014;28;20041;-79
2023/03/07 05:41:20;;;;;;;7.95;5.10;;;-3.10;99.90;;;;;;5030488;28;20049;-79
2023/03/07 05:43:48;;;;;;;8.85;5.35;;;-3.00;99.90;;;;;;5049145;28;20374;-79
2023/03/07 05:46:15;;;;;;;9.07;5.80;;;-3.00;99.90;;;;;;5044405;28;20049;-79
2023/03/07 05:48:44;;;;;;;9.27;6.03;;;-3.00;99.90;;;;;;5031812;28;20413;-78
2023/03/07 05:51:12;;;;;;;11.82;6.00;;;-3.00;99.90;;;;;;5030778;28;20111;-78
2023/03/07 05:53:39;;;;;;;10.50;6.38;;;-3.10;99.90;;;;;;5024605;28;20128;-78
2023/03/07 05:56:08;;;;;;;10.27;6.63;;;-3.10;99.90;;;;;;5034347;28;20057;-76
2023/03/07 05:58:37;;;;;;;16.23;6.68;;;-3.10;99.90;;;;;;5027981;28;20101;-78
2023/03/07 06:01:05;;;;;;;9.93;6.88;;;-3.10;99.90;;;;;;5035441;28;20080;-78
2023/03/07 06:03:33;;;;;;;8.43;5.65;;;-3.10;99.90;;;;;;5032419;28;20057;-78
2023/03/07 06:06:03;;;;;;;8.70;5.70;;;-3.20;99.90;;;;;;5048960;28;20053;-79
2023/03/07 06:08:30;;;;;;;9.25;6.07;;;-3.10;99.90;;;;;;5019284;28;20042;-82
2023/03/07 06:10:58;;;;;;;8.07;5.07;;;-3.10;99.90;;;;;;5031382;28;20057;-80
2023/03/07 06:13:26;;;;;;;8.57;5.38;;;-3.00;99.90;;;;;;5027081;28;20092;-81
2023/03/07 06:15:55;;;;;;;11.48;5.72;;;-2.90;99.90;;;;;;5018781;28;20494;-81
2023/03/07 06:18:25;;;;;;;9.88;5.50;;;-2.90;99.90;;;;;;5031652;28;20505;-82
2023/03/07 06:20:58;;;;;;;13.00;7.93;;;-2.90;99.90;;;;;;5044376;28;20092;-81
2023/03/07 06:23:32;;;;;;;13.32;8.32;;;-2.90;99.90;;;;;;5031589;28;20064;-80
2023/03/07 06:26:00;;;;;;;14.65;8.15;;;-3.00;99.90;;;;;;5028431;28;20049;-81
2023/03/07 06:28:28;;;;;;;14.05;8.43;;;-2.90;99.90;;;;;;5009079;28;20053;-83
2023/03/07 06:30:56;;;;;;;11.93;7.53;;;-2.90;99.90;;;;;;5023395;28;20041;-82
2023/03/07 06:33:24;;;;;;;13.27;7.03;;;-2.90;99.90;;;;;;5013120;28;20053;-82
2023/03/07 06:35:51;;;;;;;11.43;6.25;;;-2.90;99.90;;;;;;5031482;28;20480;-82
2023/03/07 06:38:19;;;;;;;11.30;6.72;;;-2.80;99.90;;;;;;5036108;28;20053;-81
2023/03/07 06:40:56;;;;;;;8.30;6.10;;;-2.80;99.90;;;;;;5026573;28;20434;-83
2023/03/07 06:43:23;;;;;;;12.88;7.25;;;-2.70;99.90;;;;;;5020158;28;20063;-80
2023/03/07 06:45:51;;;;;;;9.00;5.93;;;-2.70;99.90;;;;;;5025435;28;20055;-82
2023/03/07 06:48:19;;;;;;;11.25;5.95;;;-2.60;99.90;;;;;;5028937;28;20077;-81
2023/03/07 06:50:47;;;;;;;9.93;5.65;;;-2.60;99.90;;;;;;5025972;28;20065;-79
2023/03/07 06:53:15;;;;;;;9.77;6.30;;;-2.50;99.90;;;;;;5037542;28;20302;-83
2023/03/07 06:55:42;;;;;;;10.27;6.40;;;-2.50;99.90;;;;;;5038283;28;20434;-85
2023/03/07 06:58:14;;;;;;;8.18;6.10;;;-2.50;99.90;;;;;;5035942;28;20119;-81
2023/03/07 07:00:42;;;;;;;9.57;6.32;;;-2.50;99.90;;;;;;5038912;28;20054;-83
2023/03/07 07:03:12;;;;;;;9.20;6.72;;;-2.40;99.90;;;;;;5027962;28;20493;-80
2023/03/07 07:05:40;;;;;;;13.75;6.55;;;-2.40;99.90;;;;;;5034994;28;20099;-81
2023/03/07 07:08:08;;;;;;;12.27;6.72;;;-2.50;99.90;;;;;;5022800;28;20562;-80
2023/03/07 07:10:36;;;;;;;11.10;6.72;;;-2.50;99.90;;;;;;5030436;28;20049;-80
2023/03/07 07:13:05;;;;;;;12.55;6.50;;;-2.50;99.90;;;;;;5041307;28;20139;-81
2023/03/07 07:15:35;;;;;;;15.20;7.25;;;-2.50;99.90;;;;;;5017576;28;20059;-78
2023/03/07 07:18:02;;;;;;;7.55;6.15;;;-2.40;99.90;;;;;;5025515;28;20529;-81
2023/03/07 07:20:32;;;;;;;10.27;6.68;;;-2.20;99.90;;;;;;5044362;28;20049;-82
2023/03/07 07:23:01;;;;;;;8.25;5.80;;;-2.10;99.90;;;;;;5032321;28;20049;-78
2023/03/07 07:25:28;;;;;;;11.32;6.38;;;-2.00;99.90;;;;;;5027190;28;20406;-79
2023/03/07 07:27:58;;;;;;;12.30;6.55;;;-1.90;99.90;;;;;;5028936;28;20056;-79
2023/03/07 07:30:26;;;;;;;9.20;5.93;;;-1.90;99.90;;;;;;5016552;28;20143;-86
2023/03/07 07:32:55;;;;;;;10.70;6.15;;;-2.00;99.90;;;;;;5032458;28;20111;-84
2023/03/07 07:35:23;;;;;;;9.05;6.50;;;-2.00;99.90;;;;;;5018001;28;20047;-84
2023/03/07 07:37:51;;;;;;;7.20;5.30;;;-2.00;99.90;;;;;;5050937;28;20624;-84
2023/03/07 07:40:19;;;;;;;9.50;5.90;;;-2.00;99.90;;;;;;5016983;28;20045;-84
2023/03/07 07:42:53;;;;;;;9.63;5.95;;;-2.10;99.90;;;;;;5041966;28;20033;-84
2023/03/07 07:45:28;;;;;;;8.75;6.35;;;-2.10;99.90;;;;;;5028844;28;20091;-80
2023/03/07 07:47:57;;;;;;;8.60;6.15;;;-2.30;99.90;;;;;;5042977;28;20561;-85
2023/03/07 07:50:24;;;;;;;11.10;6.38;;;-2.40;99.90;;;;;;5044476;28;20083;-83
2023/03/07 07:52:54;;;;;;;10.48;5.68;;;-2.40;99.90;;;;;;5023566;28;20049;-83
2023/03/07 07:55:23;;;;;;;10.60;5.75;;;-2.50;99.90;;;;;;5049235;28;20049;-86
2023/03/07 07:57:52;;;;;;;8.48;5.70;;;-2.50;99.90;;;;;;5053253;28;20075;-84
2023/03/07 08:00:20;;;;;;;15.52;5.05;;;-2.40;99.90;;;;;;5052665;28;20094;-86
2023/03/07 08:02:49;;;;;;;9.23;5.00;;;-2.40;99.90;;;;;;5049395;28;20049;-85
2023/03/07 08:05:20;;;;;;;10.60;4.93;;;-2.30;99.90;;;;;;5054380;28;20258;-85
2023/03/07 08:07:49;;;;;;;9.23;4.43;;;-2.30;99.90;;;;;;5053919;28;20055;-84
2023/03/07 08:10:17;;;;;;;10.98;4.97;;;-2.30;99.90;;;;;;5049520;28;20041;-84
2023/03/07 08:12:52;;;;;;;7.82;4.20;;;-2.20;99.90;;;;;;5048549;28;20634;-84
2023/03/07 08:15:22;;;;;;;5.47;3.50;;;-2.10;99.90;;;;;;5038304;28;20088;-85
2023/03/07 08:17:51;;;;;;;4.85;3.15;;;-2.00;99.90;;;;;;5034188;28;20128;-79
2023/03/07 08:20:21;;;;;;;5.78;3.90;;;-1.80;99.90;;;;;;5037878;28;20464;-80
2023/03/07 08:22:51;;;;;;;6.25;3.28;;;-1.50;99.90;;;;;;5034140;28;20496;-79
2023/03/07 08:25:22;;;;;;;4.78;3.38;;;-1.10;99.90;;;;;;5033688;28;20544;-79
2023/03/07 08:27:51;;;;;;;4.28;3.28;;;-0.50;99.90;;;;;;5034884;28;20052;-78
2023/03/07 08:30:20;;;;;;;5.47;3.05;;;-0.10;99.90;;;;;;5050792;28;20050;-79
2023/03/07 08:32:50;;;;;;;4.15;2.55;;;0.30;99.90;;;;;;5034651;28;20049;-81
2023/03/07 08:35:19;;;;;;;4.30;2.97;;;0.50;99.90;;;;;;5049636;28;20756;-81
2023/03/07 08:37:47;;;;;;;3.85;2.80;;;0.50;99.90;;;;;;5036881;28;20049;-83
2023/03/07 08:40:16;;;;;;;3.53;3.05;;;0.40;99.90;;;;;;5041589;28;20050;-83
2023/03/07 08:42:44;;;;;;;3.40;3.03;;;0.20;99.90;;;;;;5044925;28;20132;-80
2023/03/07 08:45:13;;;;;;;5.65;3.47;;;-0.10;99.90;;;;;;5052828;28;20516;-82
2023/03/07 08:47:40;;;;;;;5.90;3.78;;;-0.30;99.90;;;;;;5041150;28;20053;-81
2023/03/07 08:50:09;;;;;;;5.18;4.25;;;-0.40;99.90;;;;;;5048503;28;20143;-82
2023/03/07 08:52:38;;;;;;;3.80;2.92;;;-0.50;99.90;;;;;;5035498;28;20099;-82
2023/03/07 08:55:07;;;;;;;5.18;3.42;;;-0.70;99.90;;;;;;5049452;28;20103;-81
2023/03/07 08:57:34;;;;;;;7.22;3.75;;;-0.90;99.90;;;;;;5041192;28;20041;-84
2023/03/07 09:00:02;;;;;;;3.97;3.15;;;-0.80;99.90;;;;;;5043857;28;20053;-83
2023/03/07 09:02:31;;;;;;;4.30;3.30;;;-0.80;99.90;;;;;;5043338;28;20052;-82
2023/03/07 09:04:58;;;;;;;9.05;4.00;;;-0.80;99.90;;;;;;5042520;28;20049;-81
2023/03/07 09:07:27;;;;;;;5.65;4.60;;;-0.50;99.90;;;;;;5032949;28;20042;-82
2023/03/07 09:09:56;;;;;;;7.13;4.13;;;-0.20;99.90;;;;;;4976214;28;20096;-80
2023/03/07 09:12:24;;;;;;;4.57;4.10;;;-0.10;99.90;;;;;;5015255;28;20037;-82
2023/03/07 09:14:54;;;;;;;5.22;3.65;;;-0.30;99.90;;;;;;5033105;28;20071;-82
2023/03/07 09:17:21;;;;;;;5.60;3.70;;;-0.30;99.90;;;;;;5032034;28;20382;-81
2023/03/07 09:19:49;;;;;;;5.93;3.45;;;-0.30;99.90;;;;;;5032474;28;20462;-81
2023/03/07 09:22:16;;;;;;;12.35;4.50;;;-0.40;99.90;;;;;;5014561;28;20494;-81
2023/03/07 09:24:44;;;;;;;7.22;4.38;;;-0.40;99.90;;;;;;5035845;28;20046;-82
2023/03/07 09:27:13;;;;;;;4.95;3.13;;;-0.10;99.90;;;;;;5038127;28;20500;-84
2023/03/07 09:29:40;;;;;;;8.55;3.33;;;0.20;99.90;;;;;;5044695;28;20041;-81
2023/03/07 09:32:08;;;;;;;5.32;3.50;;;0.40;99.90;;;;;;5039949;28;20064;-80
2023/03/07 09:34:36;;;;;;;7.93;3.50;;;0.40;99.90;;;;;;5044780;28;20252;-82
2023/03/07 09:37:04;;;;;;;4.05;3.20;;;0.60;99.90;;;;;;5040796;28;20149;-83
2023/03/07 09:39:31;;;;;;;4.80;2.80;;;0.60;99.90;;;;;;5030701;28;20052;-84
2023/03/07 09:42:14;;;;;;;2.85;2.53;;;0.30;99.90;;;;;;5001521;28;20465;-82
2023/03/07 09:45:04;;;;;;;3.28;2.67;;;0.20;99.90;;;;;;5036498;28;20527;-80
2023/03/07 09:48:27;;;;;;;4.32;3.00;;;0.00;99.90;;;;;;5016544;28;20064;-80
2023/03/07 09:50:58;;;;;;;4.60;2.97;;;-0.30;99.90;;;;;;4991677;28;20041;-83
2023/03/07 09:53:36;;;;;;;3.72;3.30;;;-0.30;99.90;;;;;;5005022;28;20140;-83
2023/03/07 09:56:10;;;;;;;3.15;2.58;;;-0.20;99.90;;;;;;5051568;28;20059;-81
2023/03/07 09:58:44;;;;;;;3.60;2.45;;;-0.30;99.90;;;;;;5047544;28;20045;-81
2023/03/07 10:01:15;;;;;;;5.35;2.47;;;-0.50;99.90;;;;;;5036885;28;20069;-86
2023/03/07 10:03:53;;;;;;;3.60;2.33;;;-0.80;99.90;;;;;;5050573;28;20424;-84
2023/03/07 10:06:26;;;;;;;5.55;2.50;;;-0.90;99.90;;;;;;5042346;28;20079;-81
2023/03/07 10:08:55;;;;;;;2.30;2.10;;;-0.80;99.90;;;;;;5035443;28;20045;-85
2023/03/07 10:11:47;;;;;;;2.67;2.47;;;-0.50;99.90;;;;;;5033909;28;20126;-84
2023/03/07 10:14:38;;;;;;;4.65;2.85;;;-0.40;99.90;;;;;;5041067;28;20053;-83
2023/03/07 10:17:19;;;;;;;4.38;3.05;;;-0.40;99.90;;;;;;5014605;28;20054;-83
2023/03/07 10:19:50;;;;;;;3.92;2.88;;;-0.30;99.90;;;;;;5032481;28;20140;-83
2023/03/07 10:22:28;;;;;;;5.80;3.42;;;0.10;99.90;;;;;;5031080;28;20053;-84
2023/03/07 10:25:19;;;;;;;3.60;3.13;;;0.30;99.90;;;;;;5031544;28;20053;-83
2023/03/07 10:27:49;;;;;;;6.13;2.85;;;0.50;99.90;;;;;;5045948;28;20049;-81
2023/03/07 10:30:19;;;;;;;5.25;2.90;;;0.70;99.90;;;;;;5037446;28;20484;-83
2023/03/07 10:32:49;;;;;;;3.80;2.88;;;0.60;99.90;;;;;;5051965;28;20036;-79
2023/03/07 10:35:20;;;;;;;4.85;2.95;;;0.40;99.90;;;;;;5048449;28;20041;-86
2023/03/07 10:37:50;;;;;;;6.20;3.70;;;0.40;99.90;;;;;;5013353;28;20407;-85
2023/03/07 10:40:25;;;;;;;4.70;3.55;;;0.40;99.90;;;;;;5031623;28;20053;-83
2023/03/07 10:42:54;;;;;;;4.50;3.25;;;0.80;99.90;;;;;;5035885;28;20064;-83
2023/03/07 10:45:23;;;;;;;3.60;2.95;;;1.00;99.90;;;;;;5038327;28;20095;-83
2023/03/07 10:47:50;;;;;;;3.55;2.97;;;0.90;99.90;;;;;;5044648;28;20498;-83
2023/03/07 10:50:29;;;;;;;3.35;2.78;;;0.80;99.90;;;;;;5045500;28;20048;-84
2023/03/07 10:53:04;;;;;;;3.25;2.75;;;0.60;99.90;;;;;;5048311;28;20057;-83
2023/03/07 10:55:38;;;;;;;4.75;3.20;;;0.50;99.90;;;;;;5030459;28;20044;-83
2023/03/07 10:58:27;;;;;;;5.50;3.38;;;0.50;99.90;;;;;;5043585;28;20480;-83
2023/03/07 11:01:20;;;;;;;4.75;2.55;;;0.40;99.90;;;;;;5036537;28;20094;-84
2023/03/07 11:03:52;;;;;;;4.53;2.80;;;0.40;99.90;;;;;;5049516;28;20048;-83
2023/03/07 11:06:40;;;;;;;5.18;2.40;;;0.60;99.90;;;;;;5026288;28;20057;-83
2023/03/07 11:09:23;;;;;;;4.03;3.42;;;0.80;99.90;;;;;;5023094;28;20049;-83
2023/03/07 11:11:57;;;;;;;5.07;3.28;;;1.00;99.90;;;;;;5037456;28;20075;-81
2023/03/07 11:14:27;;;;;;;5.20;3.33;;;1.20;99.90;;;;;;5047123;28;20589;-81
2023/03/07 11:16:58;;;;;;;7.63;4.10;;;1.30;99.90;;;;;;5041591;28;20085;-80
2023/03/07 11:19:42;;;;;;;4.22;3.45;;;1.40;99.90;;;;;;5012523;28;20045;-81
2023/03/07 11:22:23;;;;;;;7.28;2.90;;;1.50;99.90;;;;;;5042314;28;20412;-77
2023/03/07 11:24:56;;;;;;;5.15;3.13;;;2.20;99.90;;;;;;5038713;28;20057;-77
2023/03/07 11:27:32;;;;;;;4.10;2.63;;;2.90;99.30;;;;;;5041514;28;20414;-79
2023/03/07 11:30:25;;;;;;;3.00;2.72;;;4.30;94.90;;;;;;5028642;28;20049;-79
2023/03/07 11:33:14;;;;;;;4.03;3.22;;;4.30;90.00;;;;;;5021827;28;20145;-78
2023/03/07 11:36:02;;;;;;;3.20;2.90;;;4.60;86.60;;;;;;5044268;28;20045;-82
2023/03/07 11:38:49;;;;;;;3.58;3.25;;;4.30;85.80;;;;;;5030357;28;20047;-83
2023/03/07 11:41:30;;;;;;;4.63;3.50;;;3.80;85.80;;;;;;5029912;28;20058;-83
2023/03/07 11:44:29;;;;;;;5.43;2.90;;;3.70;85.00;;;;;;5032688;28;20068;-82
2023/03/07 11:47:28;;;;;;;4.50;3.20;;;4.80;82.60;;;;;;5044928;28;20057;-82
2023/03/07 11:50:14;;;;;;;6.15;3.15;;;4.30;79.90;;;;;;5044462;28;20048;-77
2023/03/07 11:53:37;;;;;;;6.43;4.30;;;3.10;81.70;;;;;;5047250;28;20048;-77
2023/03/07 11:56:27;;;;;;;3.92;2.97;;;2.30;87.80;;;;;;5021674;28;20493;-75
2023/03/07 11:59:30;;;;;;;4.70;3.00;;;1.60;90.50;;;;;;5027277;28;20140;-76
2023/03/07 12:01:59;;;;;;;3.28;2.92;;;1.40;90.90;;;;;;5044595;28;20809;-76
2023/03/07 12:05:02;;;;;;;4.55;3.45;;;1.40;91.80;;;;;;5039064;28;20484;-73
2023/03/07 12:07:57;;;;;;;4.85;3.30;;;1.40;92.80;;;;;;5030270;28;20048;-75
2023/03/07 12:10:40;;;;;;;4.85;3.75;;;1.40;93.30;;;;;;5031234;28;20064;-76
2023/03/07 12:13:21;;;;;;;8.23;3.70;;;1.40;93.70;;;;;;5030719;28;20497;-76
2023/03/07 12:15:55;;;;;;;5.43;3.35;;;1.60;93.60;;;;;;5031291;28;20136;-79
2023/03/07 12:18:46;;;;;;;4.85;3.60;;;2.60;93.60;;;;;;4998908;28;20073;-78
2023/03/07 12:21:36;;;;;;;3.70;3.20;;;3.70;91.00;;;;;;5036380;28;20049;-78
2023/03/07 12:24:13;;;;;;;5.82;3.17;;;5.00;87.00;;;;;;5033114;28;20045;-76
2023/03/07 12:26:51;;;;;;;6.75;3.47;;;5.10;80.60;;;;;;5037905;28;20099;-77
2023/03/07 12:29:31;;;;;;;6.35;4.47;;;4.50;80.50;;;;;;5031337;28;20429;-78
2023/03/07 12:32:03;;;;;;;4.80;3.83;;;4.10;84.00;;;;;;5026151;28;20064;-76
2023/03/07 12:34:38;;;;;;;6.22;3.95;;;5.80;82.20;;;;;;5032849;28;20049;-80
2023/03/07 12:37:11;;;;;;;3.83;3.08;;;6.20;74.10;;;;;;5049467;28;20400;-77
2023/03/07 12:39:47;;;;;;;3.38;2.90;;;5.80;74.80;;;;;;5048636;28;20045;-80
2023/03/07 12:42:30;;;;;;;3.35;2.63;;;6.60;73.40;;;;;;5029314;28;20050;-80
2023/03/07 12:45:02;;;;;;;3.92;3.50;;;6.50;69.90;;;;;;5049129;28;20049;-80
2023/03/07 12:47:36;;;;;;;;;;;5.50;70.70;;;;;;5052664;28;20130;-77
2023/03/07 12:50:15;;;;;;;5.28;3.50;;;4.40;72.70;;;;;;5029642;28;19924;-76
2023/03/07 12:52:48;;;;;;;5.18;3.03;;;3.90;75.40;;;;;;5038728;28;20480;-77
2023/03/07 12:55:20;;;;;;;;;;;3.80;78.10;;;;;;5039271;28;20064;-77
2023/03/07 12:58:03;;;;;;;4.45;3.47;;;4.80;77.10;;;;;;5011635;28;19932;-81
2023/03/07 13:00:32;;;;;;;3.30;3.00;;;4.80;75.10;;;;;;5025499;28;20119;-80
2023/03/07 13:03:03;;;;;;;4.20;2.92;;;5.40;73.50;;;;;;5036679;28;20131;-81
2023/03/07 13:05:37;;;;;;;4.45;2.88;;;6.00;70.70;;;;;;5043129;28;20676;-82
2023/03/07 13:08:07;;;;;;;3.85;3.10;;;6.20;70.00;;;;;;5038689;28;20053;-81
2023/03/07 13:10:36;;;;;;;4.60;3.38;;;6.10;67.50;;;;;;5032646;28;20148;-83